METAR Data
IDs: Format: Raw Decoded Include TAF

Data at: 2142 UTC 20 Nov 2018

KLVJ 202053Z AUTO 03009KT 10SM CLR 17/05 A3026 RMK AO2 SLP245 T01720050 56016
KLVJ 201953Z AUTO 03007KT 10SM CLR 17/06 A3026 RMK AO2 SLP247 T01670056
KLVJ 201853Z AUTO 01011G17KT 10SM CLR 16/05 A3028 RMK AO2 SLP252 T01610050
KLVJ 201753Z AUTO 01012KT 10SM CLR 15/06 A3031 RMK AO2 SLP261 T01500056 10150 20089 58005
KLVJ 201653Z AUTO 03011KT 10SM CLR 13/06 A3034 RMK AO2 SLP271 T01330056
KLVJ 201553Z AUTO 03012KT 10SM CLR 12/06 A3034 RMK AO2 SLP271 T01220061
KLVJ 201453Z AUTO 04011G22KT 10SM CLR 11/06 A3032 RMK AO2 SLP266 T01060056 51024
KLVJ 201353Z AUTO 02008KT 10SM CLR 09/06 A3030 RMK AO2 SLP259 T00940056
KLVJ 201253Z AUTO 02008KT 10SM CLR 09/06 A3027 RMK AO2 SLP250 T00890056
KLVJ 201153Z AUTO 01008KT 10SM CLR 09/06 A3025 RMK AO2 SLP242 70020 T00940056 10106 20094 53009
KLVJ 201053Z AUTO 01008KT 10SM CLR 09/07 A3023 RMK AO2 SLP236 T00940067
KLVJ 200953Z AUTO 01007KT 10SM FEW070 09/07 A3023 RMK AO2 SLP237 T00940072
KLVJ 200853Z AUTO 01007KT 10SM OVC065 10/08 A3022 RMK AO2 SLP233 T01000078 53004
KLVJ 200753Z AUTO 01010KT 10SM OVC070 11/08 A3021 RMK AO2 SLP230 T01060078
KLVJ 200653Z AUTO 36009KT 10SM OVC060 11/08 A3021 RMK AO2 SLP230 T01060078
KLVJ 200640Z AUTO 01010KT 10SM SCT025 OVC060 11/08 A3021 RMK AO2 T01060078
KLVJ 200553Z AUTO 36010KT 10SM OVC022 11/09 A3021 RMK AO2 SLP229 T01060094 10111 20106 401170089 51012
KLVJ 200521Z AUTO 36009KT 10SM SCT013 OVC020 11/09 A3020 RMK AO2 T01060094
KLVJ 200453Z AUTO 36008KT 10SM OVC012 11/10 A3021 RMK AO2 SLP229 T01060100
KLVJ 200353Z AUTO 35005KT 10SM OVC011 11/09 A3021 RMK AO2 SLP227 T01060094
KLVJ 200253Z AUTO 36010KT 10SM SCT009 OVC014 11/10 A3017 RMK AO2 SLP217 T01060100 51012
KLVJ 200153Z AUTO 01008KT 10SM OVC008 11/11 A3017 RMK AO2 SLP216 T01110106
KLVJ 200053Z AUTO 01005KT 9SM OVC006 11/11 A3016 RMK AO2 SLP211 T01110111
KLVJ 192353Z AUTO 36009KT 8SM OVC006 11/11 A3014 RMK AO2 SLP205 60000 T01110106 10111 20100 50005
KLVJ 192253Z AUTO 02008KT 8SM OVC006 11/11 A3015 RMK AO2 SLP207 T01110106
KLVJ 192153Z AUTO 01008KT 5SM BR OVC005 11/11 A3012 RMK AO2 SLP199 T01110111
KLVJ 192053Z AUTO 36006KT 5SM BR OVC006 11/11 A3012 RMK AO2 RAE06 SLP199 P0000 60000 T01060106 56019
KLVJ 191953Z AUTO 35008KT 5SM -RA BR OVC006 11/11 A3013 RMK AO2 RAB29 SLP201 P0000 T01060106
KLVJ 191853Z AUTO 36010KT 10SM BKN006 BKN010 OVC016 10/10 A3014 RMK AO2 RAB1755E20 SLP206 P0000 T01000100
KLVJ 191753Z AUTO 36006KT 7SM OVC007 10/10 A3018 RMK AO2 RAE31 CIG 005V009 SLP218 P0001 60020 T01000100 10106 20089 58004
KLVJ 191653Z AUTO 36009KT 6SM -RA BR BKN007 OVC014 09/09 A3019 RMK AO2 LTG DSNT SE RAB43 SLP222 P0000 T00940094
KLVJ 191636Z AUTO 01008KT 6SM BR SCT007 OVC014 09/09 A3019 RMK AO2 LTG DSNT S T00940094
KLVJ 191553Z AUTO 36010KT 7SM BKN007 OVC012 09/09 A3020 RMK AO2 LTG DSNT SW RAE24 CIG 005V011 SLP224 P0003 T00940089
KLVJ 191508Z AUTO 36008KT 3SM -RA BR OVC005 09/09 A3019 RMK AO2 P0003 T00890089
KLVJ 191456Z AUTO 35008KT 1 3/4SM RA BR OVC005 09/09 A3019 RMK AO2 P0002 T00890089
KLVJ 191453Z AUTO 34007KT 3SM -RA BR OVC005 09/09 A3019 RMK AO2 SLP222 P0006 60016 T00940094 51017
KLVJ 191440Z AUTO 35009KT 5SM -RA BR OVC005 09/09 A3019 RMK AO2 CIG 004V009 P0005 T00890089
KLVJ 191426Z AUTO 35008KT 3SM -RA BR OVC004 09/09 A3019 RMK AO2 CIG 004V009 P0005 T00890089
KLVJ 191414Z AUTO 35009KT 1 3/4SM RA BR OVC004 09/09 A3018 RMK AO2 P0004 T00890089
KLVJ 191409Z AUTO 35008KT 2SM RA BR OVC005 09/09 A3018 RMK AO2 P0003 T00940094
KLVJ 191353Z AUTO 35009KT 1 3/4SM RA BR OVC005 09/09 A3017 RMK AO2 SLP217 P0008 T00940094
KLVJ 191340Z AUTO 35009KT 2 1/2SM RA BR OVC005 09/09 A3017 RMK AO2 CIG 004V008 P0003 T00940094
KLVJ 191329Z AUTO 35010KT 6SM -RA BR OVC004 09/09 A3017 RMK AO2 P0002 T00940094
KLVJ 191253Z AUTO 35007KT 3SM RA BR OVC005 10/10 A3016 RMK AO2 RAB12E22B42 SLP211 P0002 T01000100
KLVJ 191153Z AUTO 34006KT 6SM BR OVC005 11/11 A3014 RMK AO2 SLP205 60000 70017 T01060106 10117 20106 51003
KLVJ 191145Z AUTO 35006KT 6SM BR OVC005 11/11 A3014 RMK AO2 T01060106
KLVJ 191124Z AUTO 01006KT 5SM BR OVC004 11/11 A3013 RMK AO2 T01060106
KLVJ 191053Z AUTO 36007KT 5SM BR OVC005 11/11 A3013 RMK AO2 RAE0957 SLP203 P0000 T01060106
KLVJ 190953Z AUTO 36007KT 6SM -RA BR OVC005 11/11 A3014 RMK AO2 RAB48 SLP206 P0000 T01110106